Galeville, New York
Current Conditions -  °F | °C
As of 9:54 PM on Friday 28 Nov 2014 (Local Time) from KSYR Reporting Station
Overcast Overcast  
Wind Chill: 15°   Ceiling: 5000
Heat Index: 26°   Visibility: 10mi
Dew Point: 15°   Wind: 13mph
Humidity: 63%   Direction: 230°SW
Pressure: 30.22"   Gusts: NA
Location:  43.1098°N, 76.1878°W
Report Text: KSYR 290254Z 23011KT 10SM OVC050 M03/M09 A3022 RMK AO2 SNE05 SLP235 P0000 60000 T10331094 56002
Loading
Personal Weather Stations






























Interactive Weather Map New forecast layout! Learn more

10-Day Weather Forecast

Advertisements
Track Severe Weather on mobile